sensor_id;sensor_type;location;lat;lon;timestamp;temperature;humidity
43089;DHT22;28709;52.030;5.652;2023-04-15T00:01:09;8.60;94.50
43089;DHT22;28709;52.030;5.652;2023-04-15T00:03:34;8.60;94.30
43089;DHT22;28709;52.030;5.652;2023-04-15T00:06:00;8.50;94.60
43089;DHT22;28709;52.030;5.652;2023-04-15T00:08:26;8.50;94.70
43089;DHT22;28709;52.030;5.652;2023-04-15T00:10:52;8.50;94.90
43089;DHT22;28709;52.030;5.652;2023-04-15T00:13:18;8.50;95.00
43089;DHT22;28709;52.030;5.652;2023-04-15T00:15:43;8.50;95.10
43089;DHT22;28709;52.030;5.652;2023-04-15T00:18:09;8.50;95.30
43089;DHT22;28709;52.030;5.652;2023-04-15T00:20:35;8.50;95.50
43089;DHT22;28709;52.030;5.652;2023-04-15T00:23:01;8.50;95.60
43089;DHT22;28709;52.030;5.652;2023-04-15T00:25:28;8.40;95.70
43089;DHT22;28709;52.030;5.652;2023-04-15T00:27:54;8.40;95.90
43089;DHT22;28709;52.030;5.652;2023-04-15T00:30:19;8.40;96.10
43089;DHT22;28709;52.030;5.652;2023-04-15T00:32:45;8.30;96.30
43089;DHT22;28709;52.030;5.652;2023-04-15T00:35:11;8.20;96.60
43089;DHT22;28709;52.030;5.652;2023-04-15T00:37:36;8.20;96.70
43089;DHT22;28709;52.030;5.652;2023-04-15T00:40:02;8.20;97.00
43089;DHT22;28709;52.030;5.652;2023-04-15T00:42:30;8.10;97.10
43089;DHT22;28709;52.030;5.652;2023-04-15T00:44:56;8.10;97.40
43089;DHT22;28709;52.030;5.652;2023-04-15T00:47:22;8.10;97.80
43089;DHT22;28709;52.030;5.652;2023-04-15T00:49:48;8.00;98.00
43089;DHT22;28709;52.030;5.652;2023-04-15T00:52:13;8.00;98.30
43089;DHT22;28709;52.030;5.652;2023-04-15T00:54:39;8.00;98.60
43089;DHT22;28709;52.030;5.652;2023-04-15T00:57:07;8.00;98.80
43089;DHT22;28709;52.030;5.652;2023-04-15T00:59:35;8.00;99.10
43089;DHT22;28709;52.030;5.652;2023-04-15T01:02:01;8.00;99.30
43089;DHT22;28709;52.030;5.652;2023-04-15T01:04:26;8.00;99.60
43089;DHT22;28709;52.030;5.652;2023-04-15T01:06:52;8.10;99.70
43089;DHT22;28709;52.030;5.652;2023-04-15T01:09:18;8.00;99.90
43089;DHT22;28709;52.030;5.652;2023-04-15T01:11:43;8.00;99.90
43089;DHT22;28709;52.030;5.652;2023-04-15T01:14:10;7.90;99.90
43089;DHT22;28709;52.030;5.652;2023-04-15T01:16:36;7.90;99.90
43089;DHT22;28709;52.030;5.652;2023-04-15T01:19:05;7.90;99.90
43089;DHT22;28709;52.030;5.652;2023-04-15T01:21:36;7.80;99.90
43089;DHT22;28709;52.030;5.652;2023-04-15T01:24:02;7.80;99.90
43089;DHT22;28709;52.030;5.652;2023-04-15T01:26:29;7.80;99.90
43089;DHT22;28709;52.030;5.652;2023-04-15T01:28:55;7.70;99.90
43089;DHT22;28709;52.030;5.652;2023-04-15T01:31:20;7.70;99.90
43089;DHT22;28709;52.030;5.652;2023-04-15T01:33:46;7.70;99.90
43089;DHT22;28709;52.030;5.652;2023-04-15T01:36:12;7.70;99.90
43089;DHT22;28709;52.030;5.652;2023-04-15T01:38:38;7.60;99.90
43089;DHT22;28709;52.030;5.652;2023-04-15T01:41:03;7.60;99.90
43089;DHT22;28709;52.030;5.652;2023-04-15T01:43:31;7.60;99.90
43089;DHT22;28709;52.030;5.652;2023-04-15T01:45:57;7.60;99.90
43089;DHT22;28709;52.030;5.652;2023-04-15T01:48:23;7.50;99.90
43089;DHT22;28709;52.030;5.652;2023-04-15T01:50:48;7.50;99.90
43089;DHT22;28709;52.030;5.652;2023-04-15T01:53:14;7.50;99.90
43089;DHT22;28709;52.030;5.652;2023-04-15T01:55:41;7.50;99.90
43089;DHT22;28709;52.030;5.652;2023-04-15T01:58:07;7.40;99.90
43089;DHT22;28709;52.030;5.652;2023-04-15T02:00:32;7.40;99.90
43089;DHT22;28709;52.030;5.652;2023-04-15T02:02:58;7.30;99.90
43089;DHT22;28709;52.030;5.652;2023-04-15T02:05:24;7.30;99.90
43089;DHT22;28709;52.030;5.652;2023-04-15T02:07:50;7.30;99.90
43089;DHT22;28709;52.030;5.652;2023-04-15T02:10:16;7.20;99.90
43089;DHT22;28709;52.030;5.652;2023-04-15T02:12:42;7.20;99.90
43089;DHT22;28709;52.030;5.652;2023-04-15T02:15:08;7.20;99.90
43089;DHT22;28709;52.030;5.652;2023-04-15T02:17:35;7.20;99.90
43089;DHT22;28709;52.030;5.652;2023-04-15T02:20:02;7.20;99.90
43089;DHT22;28709;52.030;5.652;2023-04-15T02:22:30;7.20;99.90
43089;DHT22;28709;52.030;5.652;2023-04-15T02:24:56;7.10;99.90
43089;DHT22;28709;52.030;5.652;2023-04-15T02:27:21;7.10;99.90
43089;DHT22;28709;52.030;5.652;2023-04-15T02:29:47;7.10;99.90
43089;DHT22;28709;52.030;5.652;2023-04-15T02:32:15;7.00;99.90
43089;DHT22;28709;52.030;5.652;2023-04-15T02:34:41;7.00;99.90
43089;DHT22;28709;52.030;5.652;2023-04-15T02:37:08;7.00;99.90
43089;DHT22;28709;52.030;5.652;2023-04-15T02:39:34;7.00;99.90
43089;DHT22;28709;52.030;5.652;2023-04-15T02:42:00;7.00;99.90
43089;DHT22;28709;52.030;5.652;2023-04-15T02:44:27;6.90;99.90
43089;DHT22;28709;52.030;5.652;2023-04-15T02:46:53;6.90;99.90
43089;DHT22;28709;52.030;5.652;2023-04-15T02:49:22;6.90;99.90
43089;DHT22;28709;52.030;5.652;2023-04-15T02:51:48;6.80;99.90
43089;DHT22;28709;52.030;5.652;2023-04-15T02:54:21;6.80;99.90
43089;DHT22;28709;52.030;5.652;2023-04-15T02:56:50;6.80;99.90
43089;DHT22;28709;52.030;5.652;2023-04-15T02:59:19;6.80;99.90
43089;DHT22;28709;52.030;5.652;2023-04-15T03:01:45;6.80;99.90
43089;DHT22;28709;52.030;5.652;2023-04-15T03:04:11;6.80;99.90
43089;DHT22;28709;52.030;5.652;2023-04-15T03:06:38;6.80;99.90
43089;DHT22;28709;52.030;5.652;2023-04-15T03:09:03;6.80;99.90
43089;DHT22;28709;52.030;5.652;2023-04-15T03:11:30;6.80;99.90
43089;DHT22;28709;52.030;5.652;2023-04-15T03:13:56;6.70;99.90
43089;DHT22;28709;52.030;5.652;2023-04-15T03:16:21;6.70;99.90
43089;DHT22;28709;52.030;5.652;2023-04-15T03:18:47;6.70;99.90
43089;DHT22;28709;52.030;5.652;2023-04-15T03:21:13;6.70;99.90
43089;DHT22;28709;52.030;5.652;2023-04-15T03:23:38;6.70;99.90
43089;DHT22;28709;52.030;5.652;2023-04-15T03:26:04;6.70;99.90
43089;DHT22;28709;52.030;5.652;2023-04-15T03:28:30;6.70;99.90
43089;DHT22;28709;52.030;5.652;2023-04-15T03:30:57;6.60;99.90
43089;DHT22;28709;52.030;5.652;2023-04-15T03:33:23;6.60;99.90
43089;DHT22;28709;52.030;5.652;2023-04-15T03:35:50;6.60;99.90
43089;DHT22;28709;52.030;5.652;2023-04-15T03:38:16;6.60;99.90
43089;DHT22;28709;52.030;5.652;2023-04-15T03:40:42;6.60;99.90
43089;DHT22;28709;52.030;5.652;2023-04-15T03:43:07;6.60;99.90
43089;DHT22;28709;52.030;5.652;2023-04-15T03:45:33;6.50;99.90
43089;DHT22;28709;52.030;5.652;2023-04-15T03:47:59;6.60;99.90
43089;DHT22;28709;52.030;5.652;2023-04-15T03:50:25;6.50;99.90
43089;DHT22;28709;52.030;5.652;2023-04-15T03:52:50;6.50;99.90
43089;DHT22;28709;52.030;5.652;2023-04-15T03:55:16;6.50;99.90
43089;DHT22;28709;52.030;5.652;2023-04-15T03:57:42;6.50;99.90
43089;DHT22;28709;52.030;5.652;2023-04-15T04:00:08;6.50;99.90
43089;DHT22;28709;52.030;5.652;2023-04-15T04:02:35;6.50;99.90
43089;DHT22;28709;52.030;5.652;2023-04-15T04:05:00;6.50;99.90
43089;DHT22;28709;52.030;5.652;2023-04-15T04:07:26;6.50;99.90
43089;DHT22;28709;52.030;5.652;2023-04-15T04:09:52;6.40;99.90
43089;DHT22;28709;52.030;5.652;2023-04-15T04:12:18;6.40;99.90
43089;DHT22;28709;52.030;5.652;2023-04-15T04:14:43;6.40;99.90
43089;DHT22;28709;52.030;5.652;2023-04-15T04:17:09;6.40;99.90
43089;DHT22;28709;52.030;5.652;2023-04-15T04:19:35;6.40;99.90
43089;DHT22;28709;52.030;5.652;2023-04-15T04:22:00;6.40;99.90
43089;DHT22;28709;52.030;5.652;2023-04-15T04:24:26;6.40;99.90
43089;DHT22;28709;52.030;5.652;2023-04-15T04:26:52;6.30;99.90
43089;DHT22;28709;52.030;5.652;2023-04-15T04:29:17;6.30;99.90
43089;DHT22;28709;52.030;5.652;2023-04-15T04:31:43;6.30;99.90
43089;DHT22;28709;52.030;5.652;2023-04-15T04:34:09;6.30;99.90
43089;DHT22;28709;52.030;5.652;2023-04-15T04:36:34;6.30;99.90
43089;DHT22;28709;52.030;5.652;2023-04-15T04:39:00;6.30;99.90
43089;DHT22;28709;52.030;5.652;2023-04-15T04:41:26;6.30;99.90
43089;DHT22;28709;52.030;5.652;2023-04-15T04:43:51;6.30;99.90
43089;DHT22;28709;52.030;5.652;2023-04-15T04:46:17;6.20;99.90
43089;DHT22;28709;52.030;5.652;2023-04-15T04:48:43;6.20;99.90
43089;DHT22;28709;52.030;5.652;2023-04-15T04:51:09;6.20;99.90
43089;DHT22;28709;52.030;5.652;2023-04-15T04:53:35;6.20;99.90
43089;DHT22;28709;52.030;5.652;2023-04-15T04:56:02;6.20;99.90
43089;DHT22;28709;52.030;5.652;2023-04-15T04:58:28;6.10;99.90
43089;DHT22;28709;52.030;5.652;2023-04-15T05:00:53;6.10;99.90
43089;DHT22;28709;52.030;5.652;2023-04-15T05:03:20;6.10;99.90
43089;DHT22;28709;52.030;5.652;2023-04-15T05:05:46;6.10;99.90
43089;DHT22;28709;52.030;5.652;2023-04-15T05:08:14;6.10;99.90
43089;DHT22;28709;52.030;5.652;2023-04-15T05:10:39;6.10;99.90
43089;DHT22;28709;52.030;5.652;2023-04-15T05:13:05;6.10;99.90
43089;DHT22;28709;52.030;5.652;2023-04-15T05:15:31;6.10;99.90
43089;DHT22;28709;52.030;5.652;2023-04-15T05:17:57;6.10;99.90
43089;DHT22;28709;52.030;5.652;2023-04-15T05:20:23;6.10;99.90
43089;DHT22;28709;52.030;5.652;2023-04-15T05:22:49;6.10;99.90
43089;DHT22;28709;52.030;5.652;2023-04-15T05:25:14;6.10;99.90
43089;DHT22;28709;52.030;5.652;2023-04-15T05:27:40;6.10;99.90
43089;DHT22;28709;52.030;5.652;2023-04-15T05:30:07;6.20;99.90
43089;DHT22;28709;52.030;5.652;2023-04-15T05:32:33;6.20;99.90
43089;DHT22;28709;52.030;5.652;2023-04-15T05:34:59;6.20;99.90
43089;DHT22;28709;52.030;5.652;2023-04-15T05:37:24;6.20;99.90
43089;DHT22;28709;52.030;5.652;2023-04-15T05:39:50;6.30;99.90
43089;DHT22;28709;52.030;5.652;2023-04-15T05:42:19;6.30;99.90
43089;DHT22;28709;52.030;5.652;2023-04-15T05:44:44;6.30;99.90
43089;DHT22;28709;52.030;5.652;2023-04-15T05:47:10;6.40;99.90
43089;DHT22;28709;52.030;5.652;2023-04-15T05:49:36;6.40;99.90
43089;DHT22;28709;52.030;5.652;2023-04-15T05:52:02;6.50;99.90
43089;DHT22;28709;52.030;5.652;2023-04-15T05:54:27;6.50;99.90
43089;DHT22;28709;52.030;5.652;2023-04-15T05:56:53;6.60;99.90
43089;DHT22;28709;52.030;5.652;2023-04-15T05:59:19;6.70;99.90
43089;DHT22;28709;52.030;5.652;2023-04-15T06:01:45;6.80;99.90
43089;DHT22;28709;52.030;5.652;2023-04-15T06:04:11;6.90;99.90
43089;DHT22;28709;52.030;5.652;2023-04-15T06:06:37;7.00;99.90
43089;DHT22;28709;52.030;5.652;2023-04-15T06:09:03;7.10;99.90
43089;DHT22;28709;52.030;5.652;2023-04-15T06:11:29;7.30;99.90
43089;DHT22;28709;52.030;5.652;2023-04-15T06:13:55;7.50;99.90
43089;DHT22;28709;52.030;5.652;2023-04-15T06:16:21;7.70;99.90
43089;DHT22;28709;52.030;5.652;2023-04-15T06:18:47;7.90;99.90
43089;DHT22;28709;52.030;5.652;2023-04-15T06:21:13;8.20;99.90
43089;DHT22;28709;52.030;5.652;2023-04-15T06:23:39;8.30;99.90
43089;DHT22;28709;52.030;5.652;2023-04-15T06:26:07;8.50;99.90
43089;DHT22;28709;52.030;5.652;2023-04-15T06:28:33;8.70;99.90
43089;DHT22;28709;52.030;5.652;2023-04-15T06:30:59;8.90;99.90
43089;DHT22;28709;52.030;5.652;2023-04-15T06:33:26;9.10;99.90
43089;DHT22;28709;52.030;5.652;2023-04-15T06:35:52;9.20;99.90
43089;DHT22;28709;52.030;5.652;2023-04-15T06:38:17;9.40;99.90
43089;DHT22;28709;52.030;5.652;2023-04-15T06:40:43;9.60;99.90
43089;DHT22;28709;52.030;5.652;2023-04-15T06:43:12;9.80;99.90
43089;DHT22;28709;52.030;5.652;2023-04-15T06:45:38;9.90;99.90
43089;DHT22;28709;52.030;5.652;2023-04-15T06:48:04;10.00;99.90
43089;DHT22;28709;52.030;5.652;2023-04-15T06:50:30;10.20;99.90
43089;DHT22;28709;52.030;5.652;2023-04-15T06:52:55;10.20;99.90
43089;DHT22;28709;52.030;5.652;2023-04-15T06:55:21;10.30;99.90
43089;DHT22;28709;52.030;5.652;2023-04-15T06:57:47;10.30;99.90
43089;DHT22;28709;52.030;5.652;2023-04-15T07:00:13;10.40;99.90
43089;DHT22;28709;52.030;5.652;2023-04-15T07:02:39;10.50;99.90
43089;DHT22;28709;52.030;5.652;2023-04-15T07:05:05;10.50;99.90
43089;DHT22;28709;52.030;5.652;2023-04-15T07:07:34;10.50;99.90
43089;DHT22;28709;52.030;5.652;2023-04-15T07:10:00;10.60;99.90
43089;DHT22;28709;52.030;5.652;2023-04-15T07:12:27;10.70;99.90
43089;DHT22;28709;52.030;5.652;2023-04-15T07:14:53;10.80;99.90
43089;DHT22;28709;52.030;5.652;2023-04-15T07:17:19;10.90;99.90
43089;DHT22;28709;52.030;5.652;2023-04-15T07:19:45;11.00;99.90
43089;DHT22;28709;52.030;5.652;2023-04-15T07:22:12;11.10;99.90
43089;DHT22;28709;52.030;5.652;2023-04-15T07:24:37;11.10;99.90
43089;DHT22;28709;52.030;5.652;2023-04-15T07:27:03;11.10;99.90
43089;DHT22;28709;52.030;5.652;2023-04-15T07:29:28;11.20;99.90
43089;DHT22;28709;52.030;5.652;2023-04-15T07:31:54;11.30;99.90
43089;DHT22;28709;52.030;5.652;2023-04-15T07:34:21;11.20;99.90
43089;DHT22;28709;52.030;5.652;2023-04-15T07:36:47;11.30;99.90
43089;DHT22;28709;52.030;5.652;2023-04-15T07:39:15;11.30;99.90
43089;DHT22;28709;52.030;5.652;2023-04-15T07:41:41;11.40;99.90
43089;DHT22;28709;52.030;5.652;2023-04-15T07:44:06;11.50;99.90
43089;DHT22;28709;52.030;5.652;2023-04-15T07:46:32;11.50;99.90
43089;DHT22;28709;52.030;5.652;2023-04-15T07:48:58;11.40;99.90
43089;DHT22;28709;52.030;5.652;2023-04-15T07:51:23;11.40;99.90
43089;DHT22;28709;52.030;5.652;2023-04-15T07:53:49;11.50;99.90
43089;DHT22;28709;52.030;5.652;2023-04-15T07:56:15;11.60;99.90
43089;DHT22;28709;52.030;5.652;2023-04-15T07:58:41;11.60;99.90
43089;DHT22;28709;52.030;5.652;2023-04-15T08:01:07;11.40;99.90
43089;DHT22;28709;52.030;5.652;2023-04-15T08:03:33;11.30;99.90
43089;DHT22;28709;52.030;5.652;2023-04-15T08:05:58;11.40;99.90
43089;DHT22;28709;52.030;5.652;2023-04-15T08:08:24;11.50;99.90
43089;DHT22;28709;52.030;5.652;2023-04-15T08:10:50;11.70;99.90
43089;DHT22;28709;52.030;5.652;2023-04-15T08:13:17;11.80;99.90
43089;DHT22;28709;52.030;5.652;2023-04-15T08:15:42;11.80;99.90
43089;DHT22;28709;52.030;5.652;2023-04-15T08:18:08;11.70;99.90
43089;DHT22;28709;52.030;5.652;2023-04-15T08:20:34;11.60;99.90
43089;DHT22;28709;52.030;5.652;2023-04-15T08:22:59;11.40;99.90
43089;DHT22;28709;52.030;5.652;2023-04-15T08:25:25;11.30;99.90
43089;DHT22;28709;52.030;5.652;2023-04-15T08:27:54;11.40;99.90
43089;DHT22;28709;52.030;5.652;2023-04-15T08:30:19;11.30;99.90
43089;DHT22;28709;52.030;5.652;2023-04-15T08:32:46;11.20;99.90
43089;DHT22;28709;52.030;5.652;2023-04-15T08:35:12;11.20;99.90
43089;DHT22;28709;52.030;5.652;2023-04-15T08:37:38;11.20;99.90
43089;DHT22;28709;52.030;5.652;2023-04-15T08:40:04;11.30;99.90
43089;DHT22;28709;52.030;5.652;2023-04-15T08:42:31;11.50;99.90
43089;DHT22;28709;52.030;5.652;2023-04-15T08:45:01;11.60;99.90
43089;DHT22;28709;52.030;5.652;2023-04-15T08:47:29;11.80;99.90
43089;DHT22;28709;52.030;5.652;2023-04-15T08:49:58;12.00;99.90
43089;DHT22;28709;52.030;5.652;2023-04-15T08:52:27;12.30;99.90
43089;DHT22;28709;52.030;5.652;2023-04-15T08:54:57;12.50;99.90
43089;DHT22;28709;52.030;5.652;2023-04-15T08:57:28;12.50;99.90
43089;DHT22;28709;52.030;5.652;2023-04-15T08:59:57;12.10;99.90
43089;DHT22;28709;52.030;5.652;2023-04-15T09:02:23;11.90;99.90
43089;DHT22;28709;52.030;5.652;2023-04-15T09:04:50;11.90;99.90
43089;DHT22;28709;52.030;5.652;2023-04-15T09:07:16;11.90;99.90
43089;DHT22;28709;52.030;5.652;2023-04-15T09:09:42;12.00;99.90
43089;DHT22;28709;52.030;5.652;2023-04-15T09:12:08;12.00;99.90
43089;DHT22;28709;52.030;5.652;2023-04-15T09:14:34;11.90;99.90
43089;DHT22;28709;52.030;5.652;2023-04-15T09:17:02;11.90;99.90
43089;DHT22;28709;52.030;5.652;2023-04-15T09:19:29;12.00;99.90
43089;DHT22;28709;52.030;5.652;2023-04-15T09:21:58;12.20;99.90
43089;DHT22;28709;52.030;5.652;2023-04-15T09:24:25;12.20;99.90
43089;DHT22;28709;52.030;5.652;2023-04-15T09:26:52;12.20;99.90
43089;DHT22;28709;52.030;5.652;2023-04-15T09:29:23;12.20;99.90
43089;DHT22;28709;52.030;5.652;2023-04-15T09:31:50;12.30;99.90
43089;DHT22;28709;52.030;5.652;2023-04-15T09:34:16;12.50;99.90
43089;DHT22;28709;52.030;5.652;2023-04-15T09:39:10;13.00;99.90
43089;DHT22;28709;52.030;5.652;2023-04-15T09:41:36;13.00;99.90
43089;DHT22;28709;52.030;5.652;2023-04-15T09:44:03;13.00;99.90
43089;DHT22;28709;52.030;5.652;2023-04-15T09:46:44;13.10;99.90
43089;DHT22;28709;52.030;5.652;2023-04-15T09:49:11;13.10;99.90
43089;DHT22;28709;52.030;5.652;2023-04-15T09:51:37;13.20;99.90
43089;DHT22;28709;52.030;5.652;2023-04-15T09:54:03;13.00;99.90
43089;DHT22;28709;52.030;5.652;2023-04-15T09:56:37;13.00;99.90
43089;DHT22;28709;52.030;5.652;2023-04-15T09:59:07;13.00;99.90
43089;DHT22;28709;52.030;5.652;2023-04-15T10:01:33;13.20;99.90
43089;DHT22;28709;52.030;5.652;2023-04-15T10:04:02;13.40;99.90
43089;DHT22;28709;52.030;5.652;2023-04-15T10:06:30;13.60;99.90
43089;DHT22;28709;52.030;5.652;2023-04-15T10:08:57;13.40;99.90
43089;DHT22;28709;52.030;5.652;2023-04-15T10:11:23;13.60;99.90
43089;DHT22;28709;52.030;5.652;2023-04-15T10:13:50;13.60;99.90
43089;DHT22;28709;52.030;5.652;2023-04-15T10:16:19;13.50;99.90
43089;DHT22;28709;52.030;5.652;2023-04-15T10:18:47;13.40;99.90
43089;DHT22;28709;52.030;5.652;2023-04-15T10:21:15;13.40;99.90
43089;DHT22;28709;52.030;5.652;2023-04-15T10:23:44;13.30;99.90
43089;DHT22;28709;52.030;5.652;2023-04-15T10:26:11;13.20;99.90
43089;DHT22;28709;52.030;5.652;2023-04-15T10:28:37;13.10;99.90
43089;DHT22;28709;52.030;5.652;2023-04-15T10:31:04;13.10;99.90
43089;DHT22;28709;52.030;5.652;2023-04-15T10:33:30;13.10;99.90
43089;DHT22;28709;52.030;5.652;2023-04-15T10:35:56;13.10;99.90
43089;DHT22;28709;52.030;5.652;2023-04-15T10:38:39;13.20;99.90
43089;DHT22;28709;52.030;5.652;2023-04-15T10:41:20;13.30;99.90
43089;DHT22;28709;52.030;5.652;2023-04-15T10:44:02;13.50;99.90
43089;DHT22;28709;52.030;5.652;2023-04-15T10:46:42;13.50;99.90
43089;DHT22;28709;52.030;5.652;2023-04-15T10:51:46;13.40;99.90
43089;DHT22;28709;52.030;5.652;2023-04-15T10:59:37;13.30;99.90
43089;DHT22;28709;52.030;5.652;2023-04-15T11:02:06;13.50;99.90
43089;DHT22;28709;52.030;5.652;2023-04-15T11:12:43;13.90;99.90
43089;DHT22;28709;52.030;5.652;2023-04-15T11:20:36;14.20;99.90
43089;DHT22;28709;52.030;5.652;2023-04-15T11:23:03;14.30;99.90
43089;DHT22;28709;52.030;5.652;2023-04-15T11:25:32;14.40;99.90
43089;DHT22;28709;52.030;5.652;2023-04-15T11:27:58;14.70;99.90
43089;DHT22;28709;52.030;5.652;2023-04-15T11:30:26;15.00;99.90
43089;DHT22;28709;52.030;5.652;2023-04-15T11:32:56;15.20;99.70
43089;DHT22;28709;52.030;5.652;2023-04-15T11:35:22;15.10;98.60
43089;DHT22;28709;52.030;5.652;2023-04-15T11:37:48;15.00;98.70
43089;DHT22;28709;52.030;5.652;2023-04-15T11:40:15;15.10;98.80
43089;DHT22;28709;52.030;5.652;2023-04-15T11:42:43;15.40;97.50
43089;DHT22;28709;52.030;5.652;2023-04-15T11:45:13;15.00;97.80
43089;DHT22;28709;52.030;5.652;2023-04-15T11:47:41;14.70;98.80
43089;DHT22;28709;52.030;5.652;2023-04-15T11:50:17;14.70;99.00
43089;DHT22;28709;52.030;5.652;2023-04-15T11:52:54;14.50;98.10
43089;DHT22;28709;52.030;5.652;2023-04-15T11:55:20;14.20;98.70
43089;DHT22;28709;52.030;5.652;2023-04-15T11:57:46;14.40;98.70
43089;DHT22;28709;52.030;5.652;2023-04-15T12:00:12;14.80;98.00
43089;DHT22;28709;52.030;5.652;2023-04-15T12:02:38;15.00;97.90
43089;DHT22;28709;52.030;5.652;2023-04-15T12:05:07;15.00;97.10
43089;DHT22;28709;52.030;5.652;2023-04-15T12:07:33;14.80;97.60
43089;DHT22;28709;52.030;5.652;2023-04-15T12:09:59;14.70;98.10
43089;DHT22;28709;52.030;5.652;2023-04-15T12:12:27;14.80;97.90
43089;DHT22;28709;52.030;5.652;2023-04-15T12:14:55;14.60;98.10
43089;DHT22;28709;52.030;5.652;2023-04-15T12:17:22;14.80;98.10
43089;DHT22;28709;52.030;5.652;2023-04-15T12:19:54;15.30;97.50
43089;DHT22;28709;52.030;5.652;2023-04-15T12:22:20;15.20;97.80
43089;DHT22;28709;52.030;5.652;2023-04-15T12:24:46;14.60;98.80
43089;DHT22;28709;52.030;5.652;2023-04-15T12:27:14;14.30;98.90
43089;DHT22;28709;52.030;5.652;2023-04-15T12:29:41;14.40;99.00
43089;DHT22;28709;52.030;5.652;2023-04-15T12:32:15;14.70;98.40
43089;DHT22;28709;52.030;5.652;2023-04-15T12:34:49;14.70;98.60
43089;DHT22;28709;52.030;5.652;2023-04-15T12:37:15;15.00;98.20
43089;DHT22;28709;52.030;5.652;2023-04-15T12:39:44;14.90;97.90
43089;DHT22;28709;52.030;5.652;2023-04-15T12:42:10;14.50;98.20
43089;DHT22;28709;52.030;5.652;2023-04-15T12:44:37;14.20;98.70
43089;DHT22;28709;52.030;5.652;2023-04-15T12:47:03;14.30;98.40
43089;DHT22;28709;52.030;5.652;2023-04-15T12:49:30;14.40;98.40
43089;DHT22;28709;52.030;5.652;2023-04-15T12:51:57;14.30;98.00
43089;DHT22;28709;52.030;5.652;2023-04-15T12:54:24;14.60;97.70
43089;DHT22;28709;52.030;5.652;2023-04-15T12:56:51;14.70;97.60
43089;DHT22;28709;52.030;5.652;2023-04-15T12:59:17;14.70;97.50
43089;DHT22;28709;52.030;5.652;2023-04-15T13:01:43;14.30;97.00
43089;DHT22;28709;52.030;5.652;2023-04-15T13:04:09;14.10;98.20
43089;DHT22;28709;52.030;5.652;2023-04-15T13:06:35;14.20;98.70
43089;DHT22;28709;52.030;5.652;2023-04-15T13:09:03;14.30;98.90
43089;DHT22;28709;52.030;5.652;2023-04-15T13:11:29;14.20;98.70
43089;DHT22;28709;52.030;5.652;2023-04-15T13:14:00;14.10;98.50
43089;DHT22;28709;52.030;5.652;2023-04-15T13:16:26;14.00;98.60
43089;DHT22;28709;52.030;5.652;2023-04-15T13:18:52;14.00;99.30
43089;DHT22;28709;52.030;5.652;2023-04-15T13:21:18;14.00;99.70
43089;DHT22;28709;52.030;5.652;2023-04-15T13:23:44;14.10;99.70
43089;DHT22;28709;52.030;5.652;2023-04-15T13:26:10;14.10;99.40
43089;DHT22;28709;52.030;5.652;2023-04-15T13:28:36;14.10;99.50
43089;DHT22;28709;52.030;5.652;2023-04-15T13:31:01;14.10;99.70
43089;DHT22;28709;52.030;5.652;2023-04-15T13:33:27;14.10;99.90
43089;DHT22;28709;52.030;5.652;2023-04-15T13:35:53;14.10;99.90
43089;DHT22;28709;52.030;5.652;2023-04-15T13:38:18;14.00;99.90
43089;DHT22;28709;52.030;5.652;2023-04-15T13:40:44;13.70;99.90
43089;DHT22;28709;52.030;5.652;2023-04-15T13:43:10;13.50;99.90
43089;DHT22;28709;52.030;5.652;2023-04-15T13:45:36;13.50;99.90
43089;DHT22;28709;52.030;5.652;2023-04-15T13:48:02;13.40;99.90
43089;DHT22;28709;52.030;5.652;2023-04-15T13:50:28;13.30;99.90
43089;DHT22;28709;52.030;5.652;2023-04-15T13:52:54;13.10;99.90
43089;DHT22;28709;52.030;5.652;2023-04-15T13:55:19;12.80;99.90
43089;DHT22;28709;52.030;5.652;2023-04-15T13:57:45;12.80;99.90
43089;DHT22;28709;52.030;5.652;2023-04-15T14:00:11;12.80;99.90
43089;DHT22;28709;52.030;5.652;2023-04-15T14:02:38;12.70;99.90
43089;DHT22;28709;52.030;5.652;2023-04-15T14:05:04;12.80;99.90
43089;DHT22;28709;52.030;5.652;2023-04-15T14:07:30;12.80;99.90
43089;DHT22;28709;52.030;5.652;2023-04-15T14:09:56;12.60;99.90
43089;DHT22;28709;52.030;5.652;2023-04-15T14:12:21;12.60;99.90
43089;DHT22;28709;52.030;5.652;2023-04-15T14:14:47;12.60;99.90
43089;DHT22;28709;52.030;5.652;2023-04-15T14:17:13;12.60;99.90
43089;DHT22;28709;52.030;5.652;2023-04-15T14:19:38;12.60;99.90
43089;DHT22;28709;52.030;5.652;2023-04-15T14:22:04;12.50;99.90
43089;DHT22;28709;52.030;5.652;2023-04-15T14:24:30;12.30;99.90
43089;DHT22;28709;52.030;5.652;2023-04-15T14:26:57;12.30;99.90
43089;DHT22;28709;52.030;5.652;2023-04-15T14:29:22;12.30;99.90
43089;DHT22;28709;52.030;5.652;2023-04-15T14:31:48;12.20;99.90
43089;DHT22;28709;52.030;5.652;2023-04-15T14:34:15;12.20;99.90
43089;DHT22;28709;52.030;5.652;2023-04-15T14:36:41;12.10;99.90
43089;DHT22;28709;52.030;5.652;2023-04-15T14:39:07;11.90;99.90
43089;DHT22;28709;52.030;5.652;2023-04-15T14:41:33;11.80;99.90
43089;DHT22;28709;52.030;5.652;2023-04-15T14:43:59;11.70;99.90
43089;DHT22;28709;52.030;5.652;2023-04-15T14:46:25;11.70;99.90
43089;DHT22;28709;52.030;5.652;2023-04-15T14:48:51;11.80;99.90
43089;DHT22;28709;52.030;5.652;2023-04-15T14:51:17;11.80;99.90
43089;DHT22;28709;52.030;5.652;2023-04-15T14:53:44;11.70;99.90
43089;DHT22;28709;52.030;5.652;2023-04-15T14:56:10;11.70;99.90
43089;DHT22;28709;52.030;5.652;2023-04-15T14:58:36;11.60;99.90
43089;DHT22;28709;52.030;5.652;2023-04-15T15:01:02;11.50;99.90
43089;DHT22;28709;52.030;5.652;2023-04-15T15:03:28;11.30;99.90
43089;DHT22;28709;52.030;5.652;2023-04-15T15:05:54;11.20;99.90
43089;DHT22;28709;52.030;5.652;2023-04-15T15:08:20;11.20;99.90
43089;DHT22;28709;52.030;5.652;2023-04-15T15:10:45;11.20;99.90
43089;DHT22;28709;52.030;5.652;2023-04-15T15:13:11;11.00;99.90
43089;DHT22;28709;52.030;5.652;2023-04-15T15:15:37;10.90;99.90
43089;DHT22;28709;52.030;5.652;2023-04-15T15:18:03;10.90;99.90
43089;DHT22;28709;52.030;5.652;2023-04-15T15:20:29;10.90;99.90
43089;DHT22;28709;52.030;5.652;2023-04-15T15:22:55;10.80;99.90
43089;DHT22;28709;52.030;5.652;2023-04-15T15:25:21;10.90;99.90
43089;DHT22;28709;52.030;5.652;2023-04-15T15:27:47;10.90;99.90
43089;DHT22;28709;52.030;5.652;2023-04-15T15:30:13;11.00;99.90
43089;DHT22;28709;52.030;5.652;2023-04-15T15:32:40;11.00;99.90
43089;DHT22;28709;52.030;5.652;2023-04-15T15:35:06;10.90;99.90
43089;DHT22;28709;52.030;5.652;2023-04-15T15:37:32;11.00;99.90
43089;DHT22;28709;52.030;5.652;2023-04-15T15:39:59;11.00;99.90
43089;DHT22;28709;52.030;5.652;2023-04-15T15:42:25;11.00;99.90
43089;DHT22;28709;52.030;5.652;2023-04-15T15:44:51;11.00;99.90
43089;DHT22;28709;52.030;5.652;2023-04-15T15:47:18;11.00;99.90
43089;DHT22;28709;52.030;5.652;2023-04-15T15:49:44;10.90;99.90
43089;DHT22;28709;52.030;5.652;2023-04-15T15:52:10;10.80;99.90
43089;DHT22;28709;52.030;5.652;2023-04-15T15:54:35;10.70;99.90
43089;DHT22;28709;52.030;5.652;2023-04-15T15:57:02;10.60;99.90